createdAt,value
2023-05-01T00:00:30.194Z,15.79
2023-05-01T00:05:04.770Z,15.89
2023-05-01T00:09:22.366Z,15.86
2023-05-01T00:13:40.164Z,15.93
2023-05-01T00:17:58.011Z,15.96
2023-05-01T00:22:16.552Z,15.70
2023-05-01T00:26:34.088Z,15.99
2023-05-01T00:30:52.554Z,16.04
2023-05-01T00:35:10.081Z,15.67
2023-05-01T00:39:28.020Z,15.87
2023-05-01T00:43:45.743Z,15.85
2023-05-01T00:48:03.768Z,15.87
2023-05-01T00:52:21.411Z,15.99
2023-05-01T00:56:39.182Z,15.76
2023-05-01T01:00:57.482Z,15.96
2023-05-01T01:05:15.318Z,15.92
2023-05-01T01:10:14.641Z,15.84
2023-05-01T01:14:45.943Z,15.97
2023-05-01T01:19:26.115Z,16.02
2023-05-01T01:24:24.678Z,15.83
2023-05-01T01:29:37.055Z,15.93
2023-05-01T01:34:02.165Z,15.87
2023-05-01T01:38:31.638Z,15.98
2023-05-01T01:42:55.614Z,15.84
2023-05-01T01:47:15.579Z,15.85
2023-05-01T01:51:34.613Z,15.94
2023-05-01T01:55:54.929Z,15.83
2023-05-01T02:00:14.494Z,15.83
2023-05-01T02:04:33.251Z,15.94
2023-05-01T02:08:52.188Z,15.76
2023-05-01T02:13:12.574Z,15.83
2023-05-01T02:17:30.966Z,15.74
2023-05-01T02:21:50.639Z,15.93
2023-05-01T02:26:13.850Z,15.84
2023-05-01T02:30:32.790Z,15.86
2023-05-01T02:34:50.455Z,15.83
2023-05-01T02:39:08.995Z,15.70
2023-05-01T02:43:28.990Z,15.75
2023-05-01T02:47:51.913Z,15.86
2023-05-01T02:52:10.372Z,15.77
2023-05-01T02:56:31.484Z,15.94
2023-05-01T03:00:50.223Z,15.92
2023-05-01T03:05:09.013Z,15.96
2023-05-01T03:09:26.925Z,15.86
2023-05-01T03:13:44.677Z,15.97
2023-05-01T03:18:02.939Z,16.00
2023-05-01T03:22:21.490Z,16.13
2023-05-01T03:26:39.320Z,16.19
2023-05-01T03:30:56.971Z,16.10
2023-05-01T03:35:14.978Z,16.24
2023-05-01T03:39:32.564Z,16.26
2023-05-01T03:43:51.165Z,16.42
2023-05-01T03:48:08.775Z,16.44
2023-05-01T03:52:27.009Z,15.98
2023-05-01T03:56:44.501Z,15.76
2023-05-01T04:01:03.291Z,15.47
2023-05-01T04:05:21.737Z,16.47
2023-05-01T04:09:39.493Z,16.40
2023-05-01T04:13:57.027Z,16.10
2023-05-01T04:18:14.907Z,16.02
2023-05-01T04:22:33.525Z,15.96
2023-05-01T04:26:51.102Z,15.74
2023-05-01T04:31:08.858Z,15.89
2023-05-01T04:35:27.203Z,15.57
2023-05-01T04:39:44.933Z,15.78
2023-05-01T04:44:02.739Z,15.80
2023-05-01T04:48:20.411Z,15.82
2023-05-01T04:52:38.303Z,15.86
2023-05-01T04:56:56.037Z,15.81
2023-05-01T05:01:13.816Z,15.88
2023-05-01T05:05:31.382Z,15.94
2023-05-01T05:09:49.391Z,15.88
2023-05-01T05:14:06.935Z,15.98
2023-05-01T05:18:24.653Z,15.93
2023-05-01T05:22:42.496Z,16.08
2023-05-01T05:27:01.642Z,15.91
2023-05-01T05:31:19.283Z,16.27
2023-05-01T05:35:37.262Z,16.10
2023-05-01T05:39:55.230Z,16.20
2023-05-01T05:44:13.007Z,16.09
2023-05-01T05:48:30.741Z,16.24
2023-05-01T05:52:48.421Z,16.27
2023-05-01T05:57:06.049Z,16.31
2023-05-01T06:01:23.890Z,16.37
2023-05-01T06:05:41.890Z,16.43
2023-05-01T06:10:04.571Z,16.49
2023-05-01T06:14:22.360Z,16.43
2023-05-01T06:18:39.993Z,16.51
2023-05-01T06:22:58.238Z,16.52
2023-05-01T06:27:16.040Z,16.57
2023-05-01T06:31:33.673Z,16.57
2023-05-01T06:35:51.931Z,16.63
2023-05-01T06:40:10.145Z,16.67
2023-05-01T06:44:27.809Z,16.67
2023-05-01T06:48:45.454Z,16.70
2023-05-01T06:53:03.463Z,16.76
2023-05-01T06:57:21.210Z,16.70
2023-05-01T07:01:39.018Z,16.80
2023-05-01T07:05:56.799Z,16.78
2023-05-01T07:10:14.779Z,16.81
2023-05-01T07:14:32.384Z,16.85
2023-05-01T07:18:50.256Z,16.85
2023-05-01T07:23:08.101Z,16.88
2023-05-01T07:27:26.175Z,16.90
2023-05-01T07:31:44.346Z,16.93
2023-05-01T07:36:02.253Z,16.96
2023-05-01T07:40:19.812Z,17.00
2023-05-01T07:44:37.657Z,16.96
2023-05-01T07:48:55.281Z,17.00
2023-05-01T07:53:12.970Z,17.02
2023-05-01T07:57:33.745Z,17.06
2023-05-01T08:01:51.653Z,17.10
2023-05-01T08:06:09.249Z,17.07
2023-05-01T08:10:28.816Z,17.13
2023-05-01T08:14:46.615Z,17.11
2023-05-01T08:19:04.536Z,17.18
2023-05-01T08:23:22.334Z,17.21
2023-05-01T08:27:40.586Z,17.21
2023-05-01T08:31:58.993Z,17.29
2023-05-01T08:36:17.805Z,17.24
2023-05-01T08:40:40.873Z,17.38
2023-05-01T08:45:01.494Z,17.36
2023-05-01T08:49:21.754Z,17.46
2023-05-01T08:53:41.667Z,17.44
2023-05-01T08:58:00.230Z,17.52
2023-05-01T09:02:18.863Z,17.40
2023-05-01T09:06:36.677Z,17.46
2023-05-01T09:10:56.984Z,17.43
2023-05-01T09:15:14.879Z,17.48
2023-05-01T09:19:32.925Z,17.47
2023-05-01T09:23:54.118Z,17.50
2023-05-01T09:28:12.068Z,17.58
2023-05-01T09:32:30.051Z,17.58
2023-05-01T09:36:48.523Z,17.73
2023-05-01T09:41:06.621Z,17.71
2023-05-01T09:45:27.034Z,17.79
2023-05-01T09:49:48.419Z,17.77
2023-05-01T09:54:19.669Z,17.91
2023-05-01T09:58:37.345Z,17.90
2023-05-01T10:02:55.281Z,17.99
2023-05-01T10:07:14.761Z,18.01
2023-05-01T10:12:00.404Z,18.14
2023-05-01T10:16:30.711Z,18.04
2023-05-01T10:20:48.607Z,18.17
2023-05-01T10:25:13.528Z,18.17
2023-05-01T10:29:32.482Z,18.20
2023-05-01T10:33:50.490Z,18.21
2023-05-01T10:38:19.598Z,18.30
2023-05-01T10:43:18.538Z,18.41
2023-05-01T10:47:41.768Z,18.48
2023-05-01T10:52:02.152Z,18.80
2023-05-01T10:56:25.629Z,18.84
2023-05-01T11:00:43.240Z,19.08
2023-05-01T11:05:01.713Z,20.89
2023-05-01T11:09:41.424Z,23.74
2023-05-01T11:14:04.977Z,24.81
2023-05-01T11:18:47.805Z,25.16
2023-05-01T11:23:05.480Z,25.69
2023-05-01T11:27:23.099Z,26.14
2023-05-01T11:31:40.464Z,26.04
2023-05-01T11:36:00.395Z,26.32
2023-05-01T11:40:30.820Z,26.21
2023-05-01T11:45:11.855Z,26.87
2023-05-01T11:49:29.899Z,26.75
2023-05-01T11:54:15.784Z,27.33
2023-05-01T11:58:34.643Z,27.33
2023-05-01T12:03:13.421Z,27.56
2023-05-01T12:07:32.770Z,26.83
2023-05-01T12:11:53.255Z,27.83
2023-05-01T12:16:11.768Z,27.75
2023-05-01T12:20:37.011Z,27.85
2023-05-01T12:24:54.965Z,28.19
2023-05-01T12:29:13.160Z,28.34
2023-05-01T12:33:30.852Z,28.32
2023-05-01T12:37:48.994Z,28.41
2023-05-01T12:42:14.416Z,28.99
2023-05-01T12:46:32.617Z,28.14
2023-05-01T12:50:55.031Z,28.33
2023-05-01T12:55:13.177Z,28.11
2023-05-01T12:59:31.600Z,28.30
2023-05-01T13:03:49.272Z,28.40
2023-05-01T13:08:07.352Z,28.20
2023-05-01T13:12:26.528Z,28.35
2023-05-01T13:16:47.453Z,28.87
2023-05-01T13:21:09.416Z,28.56
2023-05-01T13:25:27.687Z,28.37
2023-05-01T13:29:55.854Z,28.66
2023-05-01T13:34:19.013Z,28.36
2023-05-01T13:38:47.264Z,28.45
2023-05-01T13:43:05.230Z,27.93
2023-05-01T13:47:28.299Z,27.49
2023-05-01T13:51:46.951Z,27.32
2023-05-01T13:56:10.474Z,27.73
2023-05-01T14:00:28.297Z,27.33
2023-05-01T14:04:46.314Z,26.63
2023-05-01T14:09:06.049Z,26.83
2023-05-01T14:13:23.613Z,26.67
2023-05-01T14:17:41.585Z,26.26
2023-05-01T14:21:59.789Z,26.10
2023-05-01T14:26:19.784Z,25.36
2023-05-01T14:30:40.243Z,25.18
2023-05-01T14:34:59.881Z,22.73
2023-05-01T14:39:18.909Z,20.72
2023-05-01T14:43:37.269Z,20.45
2023-05-01T14:47:55.088Z,19.95
2023-05-01T14:52:14.272Z,20.01
2023-05-01T14:56:31.979Z,19.72
2023-05-01T15:00:49.646Z,19.61
2023-05-01T15:05:07.401Z,19.45
2023-05-01T15:09:24.760Z,19.23
2023-05-01T15:13:44.916Z,19.30
2023-05-01T15:18:03.783Z,19.23
2023-05-01T15:22:24.699Z,19.21
2023-05-01T15:26:42.803Z,19.29
2023-05-01T15:31:00.501Z,19.12
2023-05-01T15:35:18.168Z,19.10
2023-05-01T15:39:35.946Z,19.15
2023-05-01T15:43:53.676Z,19.01
2023-05-01T15:48:14.264Z,19.12
2023-05-01T15:52:31.976Z,18.87
2023-05-01T15:56:49.658Z,18.87
2023-05-01T16:01:09.085Z,18.88
2023-05-01T16:05:26.930Z,18.65
2023-05-01T16:09:44.574Z,18.80
2023-05-01T16:14:02.630Z,18.65
2023-05-01T16:18:23.333Z,18.46
2023-05-01T16:22:42.995Z,18.63
2023-05-01T16:27:00.597Z,18.42
2023-05-01T16:31:27.133Z,18.60
2023-05-01T16:35:48.625Z,18.44
2023-05-01T16:40:10.576Z,18.34
2023-05-01T16:44:28.340Z,18.35
2023-05-01T16:48:46.065Z,18.16
2023-05-01T16:53:03.604Z,18.17
2023-05-01T16:57:21.339Z,18.08
2023-05-01T17:01:38.446Z,17.97
2023-05-01T17:05:56.374Z,18.11
2023-05-01T17:10:13.907Z,18.04
2023-05-01T17:14:32.428Z,18.11
2023-05-01T17:18:49.976Z,18.01
2023-05-01T17:23:07.937Z,17.96
2023-05-01T17:27:25.364Z,17.95
2023-05-01T17:31:43.180Z,17.87
2023-05-01T17:36:00.871Z,17.95
2023-05-01T17:40:18.480Z,17.85
2023-05-01T17:44:36.295Z,17.81
2023-05-01T17:48:54.230Z,17.76
2023-05-01T17:53:12.207Z,17.76
2023-05-01T17:57:29.749Z,17.76
2023-05-01T18:01:48.656Z,17.71
2023-05-01T18:06:06.778Z,17.71
2023-05-01T18:10:30.252Z,17.65
2023-05-01T18:14:48.039Z,17.68
2023-05-01T18:19:05.597Z,17.64
2023-05-01T18:23:25.592Z,17.70
2023-05-01T18:27:44.853Z,17.62
2023-05-01T18:32:03.029Z,17.71
2023-05-01T18:36:20.899Z,17.60
2023-05-01T18:40:38.575Z,17.73
2023-05-01T18:44:57.100Z,17.56
2023-05-01T18:49:14.833Z,17.67
2023-05-01T18:53:32.399Z,17.52
2023-05-01T18:57:50.268Z,17.57
2023-05-01T19:02:08.107Z,17.48
2023-05-01T19:06:29.462Z,17.68
2023-05-01T19:10:47.172Z,17.53
2023-05-01T19:15:05.055Z,17.61
2023-05-01T19:19:23.182Z,17.58
2023-05-01T19:23:41.574Z,17.54
2023-05-01T19:28:02.273Z,17.62
2023-05-01T19:32:21.030Z,17.58
2023-05-01T19:36:38.872Z,17.64
2023-05-01T19:40:57.855Z,17.62
2023-05-01T19:45:17.713Z,17.58
2023-05-01T19:49:35.682Z,17.66
2023-05-01T19:53:53.513Z,17.62
2023-05-01T19:58:11.628Z,17.61
2023-05-01T20:02:29.911Z,17.66
2023-05-01T20:06:47.712Z,17.51
2023-05-01T20:11:05.620Z,17.59
2023-05-01T20:15:23.324Z,17.45
2023-05-01T20:19:44.294Z,17.56
2023-05-01T20:24:01.831Z,17.53
2023-05-01T20:28:20.963Z,17.60
2023-05-01T20:32:44.395Z,17.50
2023-05-01T20:37:02.723Z,17.55
2023-05-01T20:41:20.555Z,17.50
2023-05-01T20:45:38.332Z,17.56
2023-05-01T20:49:57.032Z,17.48
2023-05-01T20:54:14.994Z,17.52
2023-05-01T20:58:32.677Z,17.47
2023-05-01T21:02:52.274Z,17.46
2023-05-01T21:07:10.405Z,17.43
2023-05-01T21:11:28.105Z,17.50
2023-05-01T21:15:45.783Z,17.44
2023-05-01T21:20:10.945Z,17.44
2023-05-01T21:24:28.609Z,17.47
2023-05-01T21:28:46.572Z,17.43
2023-05-01T21:33:11.855Z,17.45
2023-05-01T21:37:30.216Z,17.38
2023-05-01T21:41:49.345Z,17.38
2023-05-01T21:46:15.512Z,17.31
2023-05-01T21:50:40.352Z,17.38
2023-05-01T21:54:58.184Z,17.31
2023-05-01T21:59:18.059Z,17.31
2023-05-01T22:03:41.926Z,17.35
2023-05-01T22:08:00.637Z,17.29
2023-05-01T22:12:18.657Z,17.31
2023-05-01T22:16:36.198Z,17.28
2023-05-01T22:20:54.121Z,17.31
2023-05-01T22:25:12.260Z,17.26
2023-05-01T22:29:29.783Z,17.20
2023-05-01T22:33:47.955Z,17.13
2023-05-01T22:38:05.742Z,17.16
2023-05-01T22:42:23.475Z,17.12
2023-05-01T22:46:44.970Z,17.24
2023-05-01T22:51:02.815Z,17.12
2023-05-01T22:55:20.669Z,17.11
2023-05-01T22:59:39.740Z,17.01
2023-05-01T23:03:58.078Z,17.13
2023-05-01T23:08:15.810Z,16.93
2023-05-01T23:12:34.452Z,17.15
2023-05-01T23:16:52.181Z,16.96
2023-05-01T23:21:19.773Z,17.09
2023-05-01T23:25:44.487Z,16.96
2023-05-01T23:30:04.425Z,17.07
2023-05-01T23:34:22.516Z,16.95
2023-05-01T23:38:40.804Z,17.05
2023-05-01T23:42:58.957Z,16.92
2023-05-01T23:47:17.145Z,17.11
2023-05-01T23:51:35.406Z,16.88
2023-05-01T23:55:53.181Z,16.88
